createdAt,value
2023-05-19T00:02:22.065Z,12.00
2023-05-19T00:05:01.652Z,8.93
2023-05-19T00:08:21.636Z,9.65
2023-05-19T00:13:57.520Z,5.75
2023-05-19T00:16:45.357Z,6.32
2023-05-19T00:19:36.092Z,10.65
2023-05-19T00:22:27.798Z,7.00
2023-05-19T00:25:14.348Z,7.87
2023-05-19T00:28:05.726Z,7.03
2023-05-19T00:31:07.120Z,8.60
2023-05-19T00:34:19.006Z,8.07
2023-05-19T00:48:54.036Z,7.80
2023-05-19T01:04:17.335Z,6.82
2023-05-19T01:07:18.840Z,7.45
2023-05-19T01:23:02.184Z,4.83
2023-05-19T01:26:03.277Z,6.20
2023-05-19T01:28:56.552Z,6.32
2023-05-19T01:31:38.266Z,7.65
2023-05-19T01:34:25.915Z,12.68
2023-05-19T01:37:08.119Z,7.05
2023-05-19T01:42:30.031Z,8.60
2023-05-19T01:45:08.673Z,8.82
2023-05-19T01:47:56.315Z,9.00
2023-05-19T01:50:58.793Z,8.57
2023-05-19T01:56:51.546Z,7.65
2023-05-19T01:59:35.912Z,7.68
2023-05-19T02:02:31.439Z,8.00
2023-05-19T02:05:21.472Z,8.18
2023-05-19T02:08:02.327Z,6.57
2023-05-19T02:10:36.236Z,7.90
2023-05-19T02:13:29.166Z,7.75
2023-05-19T02:16:20.649Z,7.82
2023-05-19T02:24:58.440Z,8.70
2023-05-19T02:31:12.577Z,8.60
2023-05-19T02:59:52.677Z,7.25
2023-05-19T03:08:44.938Z,12.05
2023-05-19T03:11:33.360Z,11.05
2023-05-19T03:14:25.745Z,7.15
2023-05-19T03:17:20.146Z,10.07
2023-05-19T03:23:27.139Z,9.55
2023-05-19T03:26:25.897Z,9.75
2023-05-19T03:38:04.032Z,8.38
2023-05-19T03:40:49.036Z,15.00
2023-05-19T03:43:43.507Z,9.95
2023-05-19T03:49:31.976Z,10.30
2023-05-19T03:58:44.530Z,9.90
2023-05-19T04:01:21.581Z,10.52
2023-05-19T04:04:10.778Z,11.80
2023-05-19T04:06:52.971Z,13.13
2023-05-19T04:09:32.743Z,10.52
2023-05-19T04:12:12.722Z,8.55
2023-05-19T04:14:53.512Z,10.82
2023-05-19T04:17:41.850Z,9.90
2023-05-19T04:23:17.567Z,10.00
2023-05-19T04:25:57.259Z,9.25
2023-05-19T04:29:09.050Z,13.73
2023-05-19T04:31:51.072Z,7.13
2023-05-19T04:34:35.803Z,8.77
2023-05-19T04:37:35.030Z,5.30
2023-05-19T04:40:22.872Z,7.07
2023-05-19T04:43:12.768Z,11.95
2023-05-19T04:46:06.098Z,7.32
2023-05-19T04:51:48.769Z,8.45
2023-05-19T04:54:32.877Z,7.97
2023-05-19T04:57:34.915Z,8.18
2023-05-19T05:00:46.964Z,5.75
2023-05-19T05:06:50.942Z,7.20
2023-05-19T05:09:35.562Z,7.93
2023-05-19T05:12:19.794Z,6.63
2023-05-19T05:27:32.714Z,8.18
2023-05-19T05:46:22.626Z,7.05
2023-05-19T05:49:28.188Z,8.40
2023-05-19T05:52:24.669Z,9.03
2023-05-19T06:08:15.625Z,11.07
2023-05-19T06:10:49.981Z,7.72
2023-05-19T06:20:42.478Z,9.13
2023-05-19T06:23:16.098Z,7.75
2023-05-19T06:25:55.185Z,4.67
2023-05-19T06:28:32.404Z,7.68
2023-05-19T06:31:20.865Z,4.78
2023-05-19T06:34:38.299Z,7.67
2023-05-19T06:37:23.808Z,8.25
2023-05-19T06:40:21.505Z,9.23
2023-05-19T06:46:19.510Z,5.65
2023-05-19T06:49:02.950Z,5.40
2023-05-19T06:51:48.164Z,6.10
2023-05-19T06:54:30.198Z,8.27
2023-05-19T06:57:15.627Z,8.85
2023-05-19T06:59:50.624Z,9.63
2023-05-19T07:05:40.717Z,8.05
2023-05-19T07:11:38.035Z,7.80
2023-05-19T07:14:25.735Z,16.30
2023-05-19T07:17:09.513Z,10.35
2023-05-19T07:20:03.419Z,11.32
2023-05-19T07:22:53.078Z,7.70
2023-05-19T07:25:44.370Z,9.75
2023-05-19T07:31:38.017Z,6.20
2023-05-19T07:34:19.585Z,6.25
2023-05-19T07:37:16.666Z,6.28
2023-05-19T07:40:09.920Z,5.32
2023-05-19T07:42:50.960Z,5.88
2023-05-19T07:45:26.072Z,5.55
2023-05-19T07:48:09.104Z,5.90
2023-05-19T07:50:56.180Z,5.82
2023-05-19T07:53:37.860Z,5.80
2023-05-19T07:56:25.624Z,5.57
2023-05-19T07:59:09.843Z,4.00
2023-05-19T08:01:47.902Z,7.80
2023-05-19T08:04:38.857Z,9.10
2023-05-19T08:07:10.077Z,8.80
2023-05-19T08:10:45.379Z,15.13
2023-05-19T08:13:28.870Z,7.78
2023-05-19T08:16:07.898Z,13.88
2023-05-19T08:18:56.132Z,10.45
2023-05-19T08:21:37.707Z,10.15
2023-05-19T08:24:17.350Z,12.00
2023-05-19T08:26:56.151Z,9.63
2023-05-19T08:29:33.363Z,10.45
2023-05-19T08:35:01.137Z,7.20
2023-05-19T08:38:34.755Z,6.25
2023-05-19T08:41:41.606Z,7.28
2023-05-19T08:44:31.875Z,10.80
2023-05-19T08:47:14.503Z,9.90
2023-05-19T08:50:03.762Z,6.63
2023-05-19T08:52:53.098Z,6.20
2023-05-19T08:55:39.127Z,9.68
2023-05-19T08:58:17.297Z,4.90
2023-05-19T09:01:06.619Z,7.53
2023-05-19T09:03:46.002Z,10.32
2023-05-19T09:10:12.866Z,5.90
2023-05-19T09:16:38.472Z,4.80
2023-05-19T09:49:43.446Z,7.55
2023-05-19T09:55:46.768Z,6.72
2023-05-19T10:11:00.705Z,8.70
2023-05-19T10:29:37.433Z,8.35
2023-05-19T10:35:43.429Z,9.45
2023-05-19T10:52:40.619Z,6.65
2023-05-19T10:55:49.800Z,4.63
2023-05-19T10:58:47.135Z,8.70
2023-05-19T11:01:47.769Z,6.03
2023-05-19T11:14:14.034Z,10.30
2023-05-19T11:17:00.659Z,10.75
2023-05-19T11:23:21.612Z,6.30
2023-05-19T11:26:11.824Z,7.85
2023-05-19T11:32:09.031Z,9.15
2023-05-19T12:20:00.164Z,6.70
2023-05-19T12:33:29.085Z,7.22
2023-05-19T12:39:19.509Z,8.15
2023-05-19T12:42:13.388Z,6.55
2023-05-19T12:45:07.276Z,7.03
2023-05-19T12:48:00.909Z,6.67
2023-05-19T12:50:42.853Z,6.65
2023-05-19T12:53:22.376Z,10.10
2023-05-19T12:56:17.269Z,7.68
2023-05-19T12:58:59.907Z,7.93
2023-05-19T13:01:34.247Z,7.80
2023-05-19T13:04:14.636Z,9.43
2023-05-19T13:06:58.090Z,23.77
2023-05-19T13:09:36.446Z,10.55
2023-05-19T13:12:17.482Z,13.38
2023-05-19T13:14:55.845Z,10.88
2023-05-19T13:17:39.924Z,14.75
2023-05-19T13:20:32.537Z,12.60
2023-05-19T13:23:08.435Z,12.30
2023-05-19T13:26:11.551Z,10.20
2023-05-19T13:29:13.732Z,12.13
2023-05-19T13:32:01.204Z,10.50
2023-05-19T13:34:38.536Z,8.80
2023-05-19T13:37:18.199Z,9.93
2023-05-19T13:39:59.412Z,10.13
2023-05-19T13:42:39.224Z,12.90
2023-05-19T13:48:19.997Z,9.07
2023-05-19T13:50:58.603Z,12.82
2023-05-19T14:05:34.329Z,13.40
2023-05-19T14:08:34.839Z,13.30
2023-05-19T14:14:47.710Z,11.93
2023-05-19T14:18:06.581Z,14.05
2023-05-19T14:31:08.604Z,14.10
2023-05-19T14:34:01.942Z,15.88
2023-05-19T14:37:21.525Z,18.30
2023-05-19T14:40:15.300Z,16.90
2023-05-19T14:42:59.992Z,17.65
2023-05-19T14:45:57.710Z,19.77
2023-05-19T14:48:36.010Z,17.73
2023-05-19T14:51:19.297Z,17.55
2023-05-19T14:53:58.720Z,20.77
2023-05-19T14:56:40.436Z,19.20
2023-05-19T14:59:15.186Z,19.00
2023-05-19T15:01:56.230Z,18.65
2023-05-19T15:04:36.497Z,19.38
2023-05-19T15:07:27.420Z,18.80
2023-05-19T15:13:19.985Z,15.90
2023-05-19T15:16:16.153Z,18.33
2023-05-19T15:19:01.455Z,18.15
2023-05-19T15:21:46.222Z,20.58
2023-05-19T15:24:29.703Z,18.70
2023-05-19T15:27:16.679Z,17.85
2023-05-19T15:30:18.439Z,17.43
2023-05-19T15:33:02.346Z,18.10
2023-05-19T15:35:44.577Z,22.17
2023-05-19T15:38:44.272Z,17.75
2023-05-19T16:19:09.183Z,17.20
2023-05-19T16:31:41.787Z,41.53
2023-05-19T16:44:11.058Z,16.98
2023-05-19T17:54:07.180Z,43.08
2023-05-19T17:56:55.408Z,13.38
2023-05-19T17:59:42.570Z,15.00
2023-05-19T18:02:35.020Z,12.63
2023-05-19T18:05:45.556Z,14.45
2023-05-19T18:08:30.664Z,32.40
2023-05-19T18:14:20.861Z,15.40
2023-05-19T18:17:07.245Z,13.80
2023-05-19T18:22:44.181Z,15.75
2023-05-19T18:25:42.541Z,16.30
2023-05-19T18:28:22.382Z,37.92
2023-05-19T18:34:01.766Z,14.80
2023-05-19T18:49:20.872Z,15.70
2023-05-19T18:52:57.566Z,17.58
2023-05-19T18:56:04.509Z,15.40
2023-05-19T18:59:15.237Z,17.02
2023-05-19T19:02:22.131Z,22.00
2023-05-19T19:05:02.488Z,15.15
2023-05-19T19:07:50.843Z,20.20
2023-05-19T19:10:48.511Z,20.90
2023-05-19T19:13:37.178Z,14.10
2023-05-19T19:16:26.684Z,17.55
2023-05-19T19:19:08.257Z,18.53
2023-05-19T19:21:51.514Z,16.70
2023-05-19T19:24:53.018Z,16.60
2023-05-19T19:27:51.013Z,23.77
2023-05-19T19:34:21.060Z,13.37
2023-05-19T19:37:00.665Z,14.35
2023-05-19T19:40:20.789Z,27.70
2023-05-19T19:43:04.379Z,19.70
2023-05-19T19:46:10.463Z,44.90
2023-05-19T20:17:10.782Z,16.13
2023-05-19T20:42:19.432Z,14.45
2023-05-19T21:23:18.170Z,25.67
2023-05-19T21:26:15.460Z,18.95
2023-05-19T21:32:04.802Z,25.05
2023-05-19T21:38:11.945Z,22.20
2023-05-19T21:40:54.216Z,22.70
2023-05-19T21:44:05.144Z,22.05
2023-05-19T21:46:54.736Z,23.60
2023-05-19T21:49:34.674Z,21.85
2023-05-19T22:32:02.532Z,31.70
2023-05-19T22:37:39.841Z,27.30
2023-05-19T22:40:35.979Z,26.15
2023-05-19T22:43:21.053Z,27.80
2023-05-19T22:46:16.642Z,31.35
2023-05-19T22:49:05.250Z,24.98
2023-05-19T22:51:49.601Z,27.75
2023-05-19T22:54:28.404Z,28.13
2023-05-19T22:57:05.297Z,31.80
2023-05-19T22:59:45.079Z,29.40
2023-05-19T23:02:27.182Z,31.52
2023-05-19T23:05:04.115Z,32.87
2023-05-19T23:07:56.387Z,30.08
2023-05-19T23:10:38.975Z,29.70
2023-05-19T23:13:18.704Z,30.20
2023-05-19T23:15:55.766Z,32.40
2023-05-19T23:18:37.471Z,28.48
2023-05-19T23:21:17.425Z,31.07
2023-05-19T23:24:13.868Z,31.90
2023-05-19T23:39:25.491Z,31.63
2023-05-19T23:42:39.884Z,32.17
2023-05-19T23:45:18.190Z,32.95
2023-05-19T23:48:14.104Z,33.17
2023-05-19T23:54:22.402Z,30.30
2023-05-19T23:57:15.864Z,29.52
